Time;durP1;ratioP1;P1;durP2;ratioP2;P2;SDS_P1;SDS_P2;PMS_P1;PMS_P2;Temp;Humidity;BMP_temperature;BMP_pressure;BME280_temperature;BME280_humidity;BME280_pressure;Samples;Min_cycle;Max_cycle;Signal;HPM_P1;HPM_P2
2022/02/27 00:01:05;;;;;;;17.70;10.15;;;0.40;99.90;;;;;;5024240;28;20029;-75
2022/02/27 00:03:30;;;;;;;17.33;11.18;;;0.40;99.90;;;;;;5001917;28;20032;-75
2022/02/27 00:05:56;;;;;;;19.98;11.00;;;0.40;99.90;;;;;;5010199;28;20022;-75
2022/02/27 00:08:22;;;;;;;19.35;11.25;;;0.40;99.90;;;;;;5025805;28;20037;-76
2022/02/27 00:10:47;;;;;;;19.60;12.45;;;0.40;99.90;;;;;;5008215;28;20071;-76
2022/02/27 00:13:13;;;;;;;18.05;10.57;;;0.30;99.90;;;;;;5006428;28;20032;-76
2022/02/27 00:15:39;;;;;;;20.13;11.73;;;0.30;99.90;;;;;;5025988;28;20045;-76
2022/02/27 00:18:05;;;;;;;27.30;17.02;;;0.30;99.90;;;;;;5023045;28;20050;-76
2022/02/27 00:20:31;;;;;;;23.20;14.02;;;0.30;99.90;;;;;;5008030;28;20044;-74
2022/02/27 00:22:56;;;;;;;23.58;13.55;;;0.50;99.90;;;;;;5007070;28;20116;-75
2022/02/27 00:25:22;;;;;;;22.98;13.40;;;0.70;99.90;;;;;;5025792;28;20653;-75
2022/02/27 00:27:47;;;;;;;27.10;12.93;;;1.00;99.90;;;;;;5025486;28;20029;-75
2022/02/27 00:30:13;;;;;;;20.42;12.32;;;1.20;99.90;;;;;;5025178;28;20041;-75
2022/02/27 00:32:39;;;;;;;19.55;11.55;;;1.40;99.90;;;;;;5007961;28;20045;-75
2022/02/27 00:35:06;;;;;;;20.85;10.68;;;1.60;99.90;;;;;;5023853;28;20026;-76
2022/02/27 00:37:33;;;;;;;17.80;10.40;;;1.60;99.90;;;;;;5024990;28;20060;-76
2022/02/27 00:39:59;;;;;;;17.77;10.15;;;1.70;99.90;;;;;;5017048;28;20037;-74
2022/02/27 00:42:24;;;;;;;19.90;10.45;;;1.60;99.90;;;;;;5028011;28;20026;-74
2022/02/27 00:44:50;;;;;;;19.42;10.55;;;1.80;99.90;;;;;;5017999;28;20439;-73
2022/02/27 00:47:15;;;;;;;19.52;10.15;;;1.80;99.90;;;;;;5028360;28;20384;-73
2022/02/27 00:49:41;;;;;;;20.42;11.98;;;1.60;99.90;;;;;;5004194;28;20017;-73
2022/02/27 00:52:07;;;;;;;21.73;11.35;;;1.70;99.90;;;;;;5026992;28;20478;-73
2022/02/27 00:54:32;;;;;;;20.13;11.82;;;1.50;99.90;;;;;;5026693;28;20105;-73
2022/02/27 00:56:58;;;;;;;22.63;11.75;;;1.50;99.90;;;;;;5024163;28;20456;-73
2022/02/27 00:59:23;;;;;;;24.60;12.60;;;1.50;99.90;;;;;;5006378;28;20108;-73
2022/02/27 01:01:49;;;;;;;18.67;12.40;;;1.50;99.90;;;;;;5024931;28;20029;-73
2022/02/27 01:04:14;;;;;;;22.50;12.82;;;1.50;99.90;;;;;;5022066;28;20033;-73
2022/02/27 01:06:40;;;;;;;24.25;13.60;;;1.50;99.90;;;;;;5022434;28;20136;-73
2022/02/27 01:09:05;;;;;;;22.17;12.43;;;1.50;99.90;;;;;;5023253;28;20030;-74
2022/02/27 01:11:33;;;;;;;21.20;12.30;;;1.50;99.90;;;;;;5024869;28;20146;-74
2022/02/27 01:14:00;;;;;;;20.60;11.73;;;1.50;99.90;;;;;;5004947;28;20043;-74
2022/02/27 01:16:25;;;;;;;17.95;11.52;;;1.50;99.90;;;;;;5010333;28;20022;-74
2022/02/27 01:18:52;;;;;;;19.23;12.57;;;1.50;99.90;;;;;;5005699;28;20028;-74
2022/02/27 01:21:17;;;;;;;21.35;12.13;;;1.50;99.90;;;;;;4996411;28;20392;-74
2022/02/27 01:23:44;;;;;;;20.52;12.07;;;1.50;99.90;;;;;;5020986;28;20037;-74
2022/02/27 01:26:11;;;;;;;18.83;11.57;;;1.40;99.90;;;;;;5021944;28;20507;-74
2022/02/27 01:28:37;;;;;;;35.53;24.75;;;1.40;99.90;;;;;;5007554;28;20359;-74
2022/02/27 01:31:04;;;;;;;28.70;18.35;;;1.30;99.90;;;;;;5023765;28;20033;-74
2022/02/27 01:33:30;;;;;;;27.63;15.65;;;1.30;99.90;;;;;;5022550;28;20560;-73
2022/02/27 01:35:55;;;;;;;23.20;13.23;;;1.10;99.90;;;;;;5017281;28;20053;-74
2022/02/27 01:38:21;;;;;;;21.98;12.02;;;1.00;99.90;;;;;;5012962;28;20392;-74
2022/02/27 01:40:46;;;;;;;23.25;12.80;;;0.70;99.90;;;;;;4993583;28;20026;-73
2022/02/27 01:43:12;;;;;;;21.10;11.98;;;0.70;99.90;;;;;;4983700;28;20455;-73
2022/02/27 01:45:38;;;;;;;19.83;11.68;;;0.60;99.90;;;;;;4980764;28;20049;-72
2022/02/27 01:48:03;;;;;;;20.42;12.57;;;0.50;99.90;;;;;;4983446;28;20022;-72
2022/02/27 01:50:29;;;;;;;22.48;12.55;;;0.50;99.90;;;;;;5012521;28;20029;-73
2022/02/27 01:52:55;;;;;;;19.08;12.35;;;0.40;99.90;;;;;;4995143;28;20443;-73
2022/02/27 01:55:21;;;;;;;26.52;14.50;;;0.40;99.90;;;;;;4998105;28;20443;-73
2022/02/27 01:57:46;;;;;;;25.00;13.40;;;0.20;99.90;;;;;;4982702;28;20036;-73
2022/02/27 02:00:14;;;;;;;27.48;14.32;;;0.10;99.90;;;;;;4999281;28;20038;-73
2022/02/27 02:02:41;;;;;;;29.02;16.52;;;0.00;99.90;;;;;;4986769;28;20484;-73
2022/02/27 02:05:07;;;;;;;25.15;14.38;;;0.10;99.90;;;;;;5005641;28;20026;-75
2022/02/27 02:07:34;;;;;;;25.73;14.32;;;-0.10;99.90;;;;;;4983740;28;20080;-74
2022/02/27 02:09:59;;;;;;;22.60;14.05;;;-0.10;99.90;;;;;;4999236;28;20027;-74
2022/02/27 02:12:25;;;;;;;26.42;15.68;;;0.00;99.90;;;;;;5003746;28;20376;-74
2022/02/27 02:14:51;;;;;;;26.50;16.83;;;-0.10;99.90;;;;;;5005839;28;20022;-72
2022/02/27 02:17:16;;;;;;;24.95;15.13;;;0.00;99.90;;;;;;5001062;28;20360;-74
2022/02/27 02:19:42;;;;;;;25.42;15.90;;;-0.10;99.90;;;;;;4981567;28;20738;-74
2022/02/27 02:22:08;;;;;;;27.75;16.70;;;-0.20;99.90;;;;;;5012115;28;20499;-74
2022/02/27 02:24:33;;;;;;;24.63;14.88;;;-0.30;99.90;;;;;;4994483;28;20395;-73
2022/02/27 02:26:59;;;;;;;30.50;17.48;;;-0.30;99.90;;;;;;5012094;28;20030;-72
2022/02/27 02:29:25;;;;;;;25.75;14.82;;;-0.10;99.90;;;;;;5012487;28;20056;-74
2022/02/27 02:31:54;;;;;;;25.70;15.38;;;-0.30;99.90;;;;;;5012159;28;20041;-73
2022/02/27 02:34:22;;;;;;;21.65;12.73;;;-0.40;99.90;;;;;;5012230;28;20056;-73
2022/02/27 02:36:48;;;;;;;22.48;13.07;;;0.10;99.90;;;;;;5003263;28;20034;-74
2022/02/27 02:39:16;;;;;;;20.60;11.73;;;0.30;99.90;;;;;;4983129;28;20034;-73
2022/02/27 02:41:42;;;;;;;19.85;11.25;;;0.50;99.90;;;;;;4994407;28;20050;-74
2022/02/27 02:44:09;;;;;;;19.20;10.95;;;0.90;99.90;;;;;;4992099;28;20025;-74
2022/02/27 02:46:35;;;;;;;21.42;11.85;;;1.10;99.90;;;;;;5001549;28;20100;-75
2022/02/27 02:49:02;;;;;;;20.40;11.70;;;1.10;99.90;;;;;;5011451;28;20025;-74
2022/02/27 02:51:27;;;;;;;20.65;10.90;;;1.20;99.90;;;;;;5011680;28;20033;-75
2022/02/27 02:53:54;;;;;;;18.23;10.48;;;1.20;99.90;;;;;;5011758;28;20026;-75
2022/02/27 02:56:19;;;;;;;18.77;10.40;;;1.20;99.90;;;;;;5011718;28;20172;-75
2022/02/27 02:58:45;;;;;;;18.98;8.82;;;1.30;99.90;;;;;;4998725;28;20113;-73
2022/02/27 03:01:13;;;;;;;16.85;9.65;;;1.20;99.90;;;;;;5006151;28;20033;-74
2022/02/27 03:03:40;;;;;;;19.77;9.88;;;1.30;99.90;;;;;;4994192;28;20033;-73
2022/02/27 03:06:06;;;;;;;20.95;9.90;;;1.40;99.90;;;;;;4984736;28;20487;-74
2022/02/27 03:08:32;;;;;;;14.70;9.02;;;1.30;99.90;;;;;;5006777;28;20365;-73
2022/02/27 03:10:58;;;;;;;15.70;9.23;;;1.30;99.90;;;;;;5005685;28;20014;-73
2022/02/27 03:13:24;;;;;;;15.25;9.55;;;1.30;99.90;;;;;;5012511;28;20037;-74
2022/02/27 03:15:50;;;;;;;15.40;9.02;;;1.30;99.90;;;;;;5005809;28;20026;-76
2022/02/27 03:18:15;;;;;;;13.23;9.00;;;1.20;99.90;;;;;;5015563;28;20534;-74
2022/02/27 03:20:41;;;;;;;12.93;8.25;;;1.20;99.90;;;;;;5005949;28;20026;-75
2022/02/27 03:23:07;;;;;;;14.35;8.48;;;1.10;99.90;;;;;;5008946;28;20058;-75
2022/02/27 03:25:33;;;;;;;14.35;9.85;;;1.20;99.90;;;;;;5008388;28;20057;-76
2022/02/27 03:27:58;;;;;;;21.00;10.68;;;1.00;99.90;;;;;;4985108;28;20542;-75
2022/02/27 03:30:24;;;;;;;19.23;10.65;;;0.90;99.90;;;;;;5005556;28;20031;-76
2022/02/27 03:32:49;;;;;;;15.15;9.52;;;1.00;99.90;;;;;;4994437;28;20057;-75
2022/02/27 03:35:16;;;;;;;15.00;8.85;;;1.00;99.90;;;;;;5015287;28;20036;-74
2022/02/27 03:37:43;;;;;;;18.23;10.50;;;1.10;99.90;;;;;;4984563;28;20563;-76
2022/02/27 03:40:09;;;;;;;20.15;11.10;;;0.90;99.90;;;;;;4988033;28;20027;-75
2022/02/27 03:42:34;;;;;;;15.52;8.80;;;0.70;99.90;;;;;;4990910;28;20126;-74
2022/02/27 03:45:00;;;;;;;15.07;8.52;;;0.90;99.90;;;;;;5009824;28;20109;-74
2022/02/27 03:47:26;;;;;;;15.10;7.93;;;1.20;99.90;;;;;;4997351;28;20068;-76
2022/02/27 03:49:52;;;;;;;18.73;9.02;;;1.10;99.90;;;;;;4997619;28;20018;-75
2022/02/27 03:52:17;;;;;;;17.15;10.63;;;1.10;99.90;;;;;;4984132;28;20049;-75
2022/02/27 03:54:43;;;;;;;16.60;8.75;;;0.90;99.90;;;;;;4988148;28;20065;-75
2022/02/27 03:57:09;;;;;;;14.77;7.85;;;0.90;99.90;;;;;;4993379;28;20030;-75
2022/02/27 03:59:34;;;;;;;14.50;8.25;;;0.90;99.90;;;;;;5005902;28;20027;-75
2022/02/27 04:02:00;;;;;;;17.42;9.18;;;1.10;99.90;;;;;;4992990;28;20030;-75
2022/02/27 04:04:25;;;;;;;16.92;8.30;;;1.10;99.90;;;;;;4988221;28;20022;-75
2022/02/27 04:06:51;;;;;;;16.17;8.35;;;1.10;99.90;;;;;;5008012;28;20029;-75
2022/02/27 04:09:16;;;;;;;17.75;8.50;;;1.10;99.90;;;;;;4986592;28;20014;-74
2022/02/27 04:11:42;;;;;;;15.73;8.52;;;1.20;99.90;;;;;;4983848;28;20140;-74
2022/02/27 04:14:08;;;;;;;14.82;8.38;;;1.20;99.90;;;;;;5005676;28;20037;-74
2022/02/27 04:16:33;;;;;;;15.07;8.38;;;1.30;99.90;;;;;;5010320;28;20034;-73
2022/02/27 04:18:59;;;;;;;17.98;8.77;;;1.20;99.90;;;;;;5005488;28;20026;-72
2022/02/27 04:21:24;;;;;;;19.40;8.57;;;1.30;99.90;;;;;;5009740;28;20537;-72
2022/02/27 04:23:50;;;;;;;15.45;8.88;;;1.30;99.90;;;;;;5014417;28;20388;-74
2022/02/27 04:26:16;;;;;;;18.15;8.13;;;1.20;99.90;;;;;;5017108;28;20030;-73
2022/02/27 04:28:41;;;;;;;14.95;8.70;;;1.20;99.90;;;;;;5014501;28;20026;-73
2022/02/27 04:31:07;;;;;;;18.08;8.75;;;1.20;99.90;;;;;;5014084;28;20068;-73
2022/02/27 04:33:32;;;;;;;17.02;9.27;;;1.20;99.90;;;;;;4996693;28;20518;-73
2022/02/27 04:35:58;;;;;;;16.90;9.32;;;1.10;99.90;;;;;;4998611;28;20030;-75
2022/02/27 04:38:23;;;;;;;23.88;9.77;;;1.10;99.90;;;;;;5003439;28;20030;-74
2022/02/27 04:40:49;;;;;;;19.58;9.60;;;1.10;99.90;;;;;;5011754;28;20492;-74
2022/02/27 04:43:15;;;;;;;24.17;9.43;;;1.00;99.90;;;;;;5003145;28;20487;-75
2022/02/27 04:45:41;;;;;;;21.73;10.50;;;1.00;99.90;;;;;;4994197;28;20025;-75
2022/02/27 04:48:06;;;;;;;18.95;9.60;;;1.00;99.90;;;;;;5003110;28;20392;-75
2022/02/27 04:50:33;;;;;;;21.40;9.75;;;1.00;99.90;;;;;;4980793;28;20038;-73
2022/02/27 04:52:58;;;;;;;16.40;9.80;;;1.00;99.90;;;;;;5003179;28;20049;-76
2022/02/27 04:55:24;;;;;;;18.90;9.60;;;0.90;99.90;;;;;;5014074;28;20053;-76
2022/02/27 04:57:49;;;;;;;16.50;9.35;;;0.90;99.90;;;;;;4987645;28;20048;-76
2022/02/27 05:00:15;;;;;;;17.63;9.13;;;0.90;99.90;;;;;;5006935;28;20022;-75
2022/02/27 05:02:41;;;;;;;17.80;9.30;;;0.90;99.90;;;;;;4985502;28;20061;-76
2022/02/27 05:05:07;;;;;;;16.60;9.20;;;1.00;99.90;;;;;;4998200;28;20062;-75
2022/02/27 05:07:32;;;;;;;19.42;9.65;;;1.00;99.90;;;;;;4985202;28;20041;-74
2022/02/27 05:09:58;;;;;;;16.00;9.57;;;1.00;99.90;;;;;;5011420;28;20026;-74
2022/02/27 05:12:23;;;;;;;15.52;9.30;;;0.90;99.90;;;;;;5002504;28;20026;-74
2022/02/27 05:14:49;;;;;;;18.92;9.95;;;0.90;99.90;;;;;;4982691;28;20117;-74
2022/02/27 05:17:15;;;;;;;23.83;10.73;;;0.90;99.90;;;;;;5009437;28;20022;-74
2022/02/27 05:19:40;;;;;;;14.68;8.85;;;0.90;99.90;;;;;;5013091;28;20029;-74
2022/02/27 05:22:06;;;;;;;16.90;9.10;;;0.90;99.90;;;;;;4995487;28;20026;-75
2022/02/27 05:24:31;;;;;;;17.17;9.82;;;0.90;99.90;;;;;;5000156;28;20526;-75
2022/02/27 05:26:57;;;;;;;18.15;9.48;;;0.80;99.90;;;;;;5013112;28;20384;-75
2022/02/27 05:29:22;;;;;;;17.05;9.60;;;0.80;99.90;;;;;;5011744;28;20030;-75
2022/02/27 05:31:48;;;;;;;14.82;8.75;;;0.80;99.90;;;;;;4982835;28;20479;-73
2022/02/27 05:34:13;;;;;;;16.67;9.18;;;0.80;99.90;;;;;;5012874;28;20026;-74
2022/02/27 05:36:39;;;;;;;14.88;8.75;;;0.80;99.90;;;;;;5012975;28;20056;-74
2022/02/27 05:39:05;;;;;;;17.60;9.95;;;0.80;99.90;;;;;;4982378;28;20034;-75
2022/02/27 05:41:31;;;;;;;14.98;9.10;;;0.70;99.90;;;;;;5004882;28;20034;-73
2022/02/27 05:43:57;;;;;;;14.20;9.45;;;0.70;99.90;;;;;;5006368;28;20034;-75
2022/02/27 05:46:23;;;;;;;18.65;9.35;;;0.80;99.90;;;;;;4983709;28;20517;-74
2022/02/27 05:48:49;;;;;;;16.38;9.50;;;0.80;99.90;;;;;;4999795;28;20362;-73
2022/02/27 05:51:15;;;;;;;16.95;9.80;;;0.70;99.90;;;;;;4986815;28;20027;-74
2022/02/27 05:53:40;;;;;;;17.70;10.20;;;0.70;99.90;;;;;;4994758;28;20076;-74
2022/02/27 05:56:06;;;;;;;18.10;9.80;;;0.70;99.90;;;;;;5004305;28;20097;-74
2022/02/27 05:58:32;;;;;;;15.15;9.43;;;0.70;99.90;;;;;;4988792;28;20030;-74
2022/02/27 06:00:58;;;;;;;15.55;9.77;;;0.70;99.90;;;;;;4983444;28;20030;-74
2022/02/27 06:03:24;;;;;;;18.90;9.93;;;0.70;99.90;;;;;;4982044;28;20054;-74
2022/02/27 06:05:50;;;;;;;19.75;10.10;;;0.70;99.90;;;;;;5004092;28;20419;-74
2022/02/27 06:08:15;;;;;;;15.32;9.23;;;0.70;99.90;;;;;;4988738;28;20144;-75
2022/02/27 06:10:41;;;;;;;14.38;9.63;;;0.70;99.90;;;;;;5001261;28;20489;-76
2022/02/27 06:13:07;;;;;;;16.88;9.88;;;0.70;99.90;;;;;;4999148;28;20101;-75
2022/02/27 06:15:33;;;;;;;14.93;9.27;;;0.60;99.90;;;;;;5004243;28;20126;-75
2022/02/27 06:17:58;;;;;;;15.95;8.73;;;0.70;99.90;;;;;;5005899;28;20026;-75
2022/02/27 06:20:24;;;;;;;15.77;8.55;;;0.70;99.90;;;;;;5000705;28;20458;-75
2022/02/27 06:22:50;;;;;;;15.95;8.35;;;0.80;99.90;;;;;;4999102;28;20536;-75
2022/02/27 06:25:18;;;;;;;15.40;10.32;;;0.70;99.90;;;;;;5012186;28;20025;-75
2022/02/27 06:27:43;;;;;;;18.52;9.52;;;0.70;99.90;;;;;;5012234;28;20045;-75
2022/02/27 06:30:12;;;;;;;14.65;9.07;;;0.70;99.90;;;;;;4987088;28;20423;-75
2022/02/27 06:32:37;;;;;;;13.68;7.80;;;0.70;99.90;;;;;;5005801;28;20035;-75
2022/02/27 06:35:05;;;;;;;11.50;7.93;;;0.80;99.90;;;;;;4999974;28;20041;-75
2022/02/27 06:37:31;;;;;;;16.73;8.73;;;0.80;99.90;;;;;;4997696;28;20018;-74
2022/02/27 06:39:56;;;;;;;13.80;8.18;;;0.80;99.90;;;;;;5000295;28;20029;-74
2022/02/27 06:42:22;;;;;;;12.75;8.07;;;0.90;99.90;;;;;;4992832;28;20033;-74
2022/02/27 06:44:47;;;;;;;13.98;7.90;;;1.00;99.90;;;;;;5000099;28;20427;-74
2022/02/27 06:47:13;;;;;;;10.02;7.25;;;1.00;99.90;;;;;;4981363;28;20041;-74
2022/02/27 06:49:38;;;;;;;14.32;8.00;;;1.00;99.90;;;;;;5003993;28;20065;-75
2022/02/27 06:52:04;;;;;;;16.15;8.15;;;1.00;99.90;;;;;;5005421;28;20025;-75
2022/02/27 06:54:29;;;;;;;13.38;7.55;;;1.20;99.90;;;;;;5000127;28;20040;-74
2022/02/27 06:56:55;;;;;;;14.63;8.38;;;1.20;99.90;;;;;;4997542;28;20050;-74
2022/02/27 06:59:21;;;;;;;11.60;7.13;;;1.20;99.90;;;;;;5000136;28;20030;-75
2022/02/27 07:01:46;;;;;;;10.82;6.93;;;1.20;99.90;;;;;;4994058;28;20483;-74
2022/02/27 07:04:12;;;;;;;14.27;7.88;;;1.30;99.90;;;;;;4994321;28;20033;-75
2022/02/27 07:06:37;;;;;;;15.98;8.25;;;1.30;99.90;;;;;;5010740;28;20030;-74
2022/02/27 07:09:03;;;;;;;11.00;7.70;;;1.30;99.90;;;;;;4999698;28;20497;-74
2022/02/27 07:11:28;;;;;;;13.57;9.32;;;1.30;99.90;;;;;;4998339;28;20026;-74
2022/02/27 07:13:54;;;;;;;12.40;8.23;;;1.30;99.90;;;;;;4986858;28;20029;-73
2022/02/27 07:16:22;;;;;;;10.77;7.75;;;1.30;99.90;;;;;;5005999;28;20164;-74
2022/02/27 07:18:49;;;;;;;16.10;8.90;;;1.40;99.90;;;;;;5003187;28;20551;-74
2022/02/27 07:21:16;;;;;;;15.98;8.75;;;1.40;99.90;;;;;;4987628;28;20034;-74
2022/02/27 07:23:42;;;;;;;15.13;8.38;;;1.50;99.90;;;;;;4982674;28;20434;-74
2022/02/27 07:26:07;;;;;;;14.57;9.05;;;1.50;99.90;;;;;;4997737;28;20035;-74
2022/02/27 07:28:33;;;;;;;14.65;9.10;;;1.50;99.90;;;;;;5004073;28;20365;-74
2022/02/27 07:30:58;;;;;;;12.90;8.07;;;1.60;99.90;;;;;;5005113;28;20377;-74
2022/02/27 07:33:24;;;;;;;16.98;9.15;;;1.60;99.90;;;;;;4981762;28;20029;-74
2022/02/27 07:35:50;;;;;;;13.20;8.30;;;1.60;99.90;;;;;;4998383;28;20022;-74
2022/02/27 07:38:15;;;;;;;15.15;9.25;;;1.70;99.90;;;;;;5004405;28;20057;-73
2022/02/27 07:40:41;;;;;;;15.60;8.75;;;1.70;99.90;;;;;;4987278;28;20018;-74
2022/02/27 07:43:06;;;;;;;13.85;8.43;;;1.70;99.90;;;;;;4999008;28;20068;-74
2022/02/27 07:45:32;;;;;;;14.07;8.70;;;1.80;99.90;;;;;;4997819;28;20109;-74
2022/02/27 07:47:57;;;;;;;16.30;10.43;;;1.80;99.90;;;;;;5004337;28;20022;-73
2022/02/27 07:50:24;;;;;;;18.77;9.32;;;1.90;99.90;;;;;;5004885;28;20117;-75
2022/02/27 07:52:49;;;;;;;13.40;9.00;;;1.90;99.90;;;;;;5004566;28;20057;-74
2022/02/27 07:55:18;;;;;;;16.05;9.20;;;2.00;99.90;;;;;;5005555;28;20054;-74
2022/02/27 07:57:43;;;;;;;15.13;8.77;;;2.00;99.90;;;;;;4984678;28;20058;-74
2022/02/27 08:00:09;;;;;;;11.70;8.10;;;2.10;99.90;;;;;;4983736;28;20062;-74
2022/02/27 08:02:35;;;;;;;12.82;8.98;;;2.10;99.90;;;;;;4990248;28;20439;-74
2022/02/27 08:05:00;;;;;;;12.52;9.32;;;2.20;99.90;;;;;;5008208;28;20068;-74
2022/02/27 08:07:26;;;;;;;14.15;8.13;;;2.20;99.90;;;;;;5008059;28;20373;-74
2022/02/27 08:09:51;;;;;;;15.43;8.65;;;2.40;99.90;;;;;;4990416;28;20029;-74
2022/02/27 08:12:17;;;;;;;15.98;8.13;;;2.30;99.90;;;;;;5001328;28;20041;-74
2022/02/27 08:14:46;;;;;;;12.77;7.43;;;2.40;99.90;;;;;;4983837;28;20034;-74
2022/02/27 08:17:12;;;;;;;13.10;8.30;;;2.40;99.90;;;;;;5014603;28;20022;-74
2022/02/27 08:19:37;;;;;;;18.98;8.25;;;2.40;99.90;;;;;;5014236;28;20084;-74
2022/02/27 08:22:03;;;;;;;10.88;7.57;;;2.50;99.90;;;;;;4984026;28;20088;-75
2022/02/27 08:24:28;;;;;;;11.93;8.32;;;2.60;99.90;;;;;;5005041;28;20479;-75
2022/02/27 08:26:54;;;;;;;12.98;7.45;;;2.60;99.90;;;;;;4996635;28;20034;-75
2022/02/27 08:29:19;;;;;;;10.90;7.50;;;2.70;99.90;;;;;;4983667;28;20044;-75
2022/02/27 08:31:45;;;;;;;12.20;8.10;;;2.80;99.90;;;;;;4989281;28;20026;-74
2022/02/27 08:34:11;;;;;;;10.20;7.15;;;2.80;99.90;;;;;;5007797;28;20022;-75
2022/02/27 08:36:38;;;;;;;10.40;6.88;;;2.80;99.90;;;;;;4977002;28;20480;-72
2022/02/27 08:39:05;;;;;;;13.98;7.15;;;2.90;99.90;;;;;;4995538;28;20022;-74
2022/02/27 08:41:30;;;;;;;10.77;7.43;;;2.90;99.90;;;;;;4996327;28;20033;-74
2022/02/27 08:43:56;;;;;;;11.07;7.55;;;2.90;99.90;;;;;;5013945;28;20029;-74
2022/02/27 08:46:22;;;;;;;11.27;7.22;;;3.10;99.90;;;;;;5013909;28;20476;-73
2022/02/27 08:48:48;;;;;;;13.02;7.20;;;3.00;99.90;;;;;;5013113;28;20071;-74
2022/02/27 08:51:14;;;;;;;10.60;7.43;;;3.00;99.90;;;;;;5001805;28;20434;-74
2022/02/27 08:53:39;;;;;;;10.23;6.93;;;3.10;99.90;;;;;;5000769;28;20025;-75
2022/02/27 08:56:05;;;;;;;10.35;6.60;;;3.10;99.90;;;;;;5006129;28;20411;-74
2022/02/27 08:58:30;;;;;;;10.70;6.88;;;3.20;99.90;;;;;;4989550;28;20403;-74
2022/02/27 09:00:56;;;;;;;10.45;6.78;;;3.20;99.90;;;;;;5001322;28;20125;-74
2022/02/27 09:03:24;;;;;;;8.30;6.70;;;3.20;99.90;;;;;;5012843;28;20431;-74
2022/02/27 09:05:51;;;;;;;12.23;7.28;;;3.30;99.90;;;;;;4984047;28;20050;-74
2022/02/27 09:08:18;;;;;;;9.38;6.80;;;3.40;99.90;;;;;;4982989;28;20389;-75
2022/02/27 09:10:43;;;;;;;11.00;6.45;;;3.50;99.90;;;;;;4988193;28;20559;-74
2022/02/27 09:13:09;;;;;;;10.30;6.57;;;3.70;99.90;;;;;;5006979;28;20050;-74
2022/02/27 09:15:35;;;;;;;10.32;6.78;;;3.90;99.90;;;;;;5001732;28;20037;-74
2022/02/27 09:18:01;;;;;;;8.50;6.30;;;3.90;99.90;;;;;;4994377;28;20403;-73
2022/02/27 09:20:27;;;;;;;8.73;6.70;;;3.90;99.90;;;;;;4993790;28;20037;-74
2022/02/27 09:22:52;;;;;;;9.02;6.15;;;4.00;99.90;;;;;;5006668;28;20030;-74
2022/02/27 09:25:18;;;;;;;8.30;5.60;;;3.90;99.90;;;;;;5001668;28;20029;-74
2022/02/27 09:27:44;;;;;;;8.57;6.00;;;4.00;99.90;;;;;;5000115;28;20069;-74
2022/02/27 09:30:12;;;;;;;12.98;6.40;;;4.20;99.90;;;;;;4987952;28;20033;-75
2022/02/27 09:32:38;;;;;;;10.57;5.50;;;4.40;99.90;;;;;;5007737;28;20364;-75
2022/02/27 09:35:05;;;;;;;11.85;5.68;;;4.40;99.90;;;;;;5005061;28;20038;-73
2022/02/27 09:37:32;;;;;;;8.27;5.68;;;4.60;99.90;;;;;;5006384;28;20030;-73
2022/02/27 09:39:58;;;;;;;8.75;5.28;;;4.80;99.90;;;;;;5001444;28;20541;-73
2022/02/27 09:42:29;;;;;;;9.23;4.70;;;4.80;99.90;;;;;;4982160;28;20034;-74
2022/02/27 09:44:56;;;;;;;5.93;4.60;;;4.70;99.90;;;;;;5012706;28;20472;-74
2022/02/27 09:47:22;;;;;;;7.47;4.80;;;4.80;99.90;;;;;;4997158;28;20034;-75
2022/02/27 09:49:47;;;;;;;7.30;4.78;;;4.80;99.90;;;;;;4984668;28;20062;-75
2022/02/27 09:52:18;;;;;;;7.50;4.60;;;4.80;99.90;;;;;;4998929;28;20465;-74
2022/02/27 09:54:44;;;;;;;8.05;4.95;;;4.90;99.90;;;;;;4998975;28;20480;-74
2022/02/27 09:57:28;;;;;;;9.70;5.60;;;4.70;99.90;;;;;;5011235;28;20046;-75
2022/02/27 09:59:54;;;;;;;11.18;7.30;;;4.50;99.90;;;;;;4985940;28;20535;-75
2022/02/27 10:02:19;;;;;;;8.60;5.22;;;4.60;99.90;;;;;;4998385;28;20038;-75
2022/02/27 10:04:48;;;;;;;7.65;4.72;;;4.80;99.90;;;;;;5007210;28;20029;-74
2022/02/27 10:07:18;;;;;;;10.52;6.90;;;4.90;99.90;;;;;;5009338;28;20505;-74
2022/02/27 10:09:45;;;;;;;8.25;5.20;;;5.00;99.90;;;;;;5012393;28;20030;-74
2022/02/27 10:12:22;;;;;;;8.27;4.45;;;5.10;99.90;;;;;;5012343;28;20530;-74
2022/02/27 10:15:18;;;;;;;11.65;5.53;;;5.00;99.90;;;;;;4999073;28;20066;-73
2022/02/27 10:17:44;;;;;;;6.27;4.43;;;4.80;99.90;;;;;;4987429;28;20401;-74
2022/02/27 10:20:15;;;;;;;7.28;4.60;;;4.70;99.90;;;;;;5011049;28;20354;-74
2022/02/27 10:22:44;;;;;;;7.57;5.10;;;4.50;99.90;;;;;;5012422;28;20029;-74
2022/02/27 10:25:18;;;;;;;9.50;5.03;;;4.70;99.90;;;;;;5002195;28;20026;-74
2022/02/27 10:27:56;;;;;;;10.30;5.32;;;4.80;99.90;;;;;;5008236;28;20192;-74
2022/02/27 10:30:37;;;;;;;7.72;5.63;;;4.90;99.90;;;;;;5002542;28;20014;-74
2022/02/27 10:33:08;;;;;;;9.65;5.43;;;5.00;99.90;;;;;;5007798;28;20041;-74
2022/02/27 10:35:39;;;;;;;9.52;5.60;;;5.00;99.90;;;;;;4995874;28;20507;-75
2022/02/27 10:38:07;;;;;;;7.00;4.65;;;4.90;99.90;;;;;;5005653;28;20038;-74
2022/02/27 10:40:43;;;;;;;7.78;5.13;;;4.90;99.90;;;;;;5004902;28;20028;-74
2022/02/27 10:43:11;;;;;;;7.82;4.70;;;4.90;99.90;;;;;;5002651;28;20029;-74
2022/02/27 10:45:38;;;;;;;6.55;4.60;;;5.00;99.90;;;;;;5011685;28;20124;-73
2022/02/27 10:48:07;;;;;;;9.05;4.80;;;4.80;99.90;;;;;;5003739;28;20165;-73
2022/02/27 10:50:34;;;;;;;6.70;4.78;;;4.90;99.90;;;;;;5007299;28;20476;-74
2022/02/27 10:52:59;;;;;;;6.95;5.00;;;5.00;99.90;;;;;;4994543;28;20491;-74
2022/02/27 10:55:26;;;;;;;8.18;5.50;;;4.90;99.90;;;;;;4984274;28;20061;-74
2022/02/27 10:57:52;;;;;;;9.18;6.05;;;4.90;99.90;;;;;;5012318;28;20384;-74
2022/02/27 11:00:26;;;;;;;7.30;5.40;;;5.00;99.90;;;;;;5011680;28;20375;-74
2022/02/27 11:02:53;;;;;;;7.30;4.75;;;4.70;99.90;;;;;;4994366;28;20025;-74
2022/02/27 11:05:21;;;;;;;7.28;5.22;;;4.70;99.90;;;;;;5008002;28;20118;-73
2022/02/27 11:07:50;;;;;;;9.13;5.53;;;4.70;99.90;;;;;;4989010;28;20412;-73
2022/02/27 11:10:18;;;;;;;8.93;5.40;;;4.90;99.90;;;;;;5011402;28;20018;-74
2022/02/27 11:12:44;;;;;;;8.65;5.70;;;4.90;99.90;;;;;;4994118;28;20033;-75
2022/02/27 11:15:13;;;;;;;7.82;5.28;;;4.90;99.90;;;;;;5007093;28;20033;-74
2022/02/27 11:17:41;;;;;;;5.25;4.63;;;4.90;99.90;;;;;;5003691;28;20025;-73
2022/02/27 11:20:08;;;;;;;6.57;5.07;;;4.90;99.90;;;;;;5000460;28;20036;-74
2022/02/27 11:22:34;;;;;;;8.60;5.43;;;4.90;99.90;;;;;;5017240;28;20105;-74
2022/02/27 11:25:02;;;;;;;7.90;4.72;;;5.10;99.90;;;;;;5005623;28;20141;-73
2022/02/27 11:27:29;;;;;;;7.60;5.68;;;5.00;99.90;;;;;;5022993;28;20021;-74
2022/02/27 11:29:56;;;;;;;8.18;5.30;;;5.10;99.90;;;;;;5021072;28;20033;-74
2022/02/27 11:32:22;;;;;;;7.63;5.18;;;5.30;99.90;;;;;;5021343;28;20030;-73
2022/02/27 11:34:48;;;;;;;7.65;5.25;;;5.20;99.90;;;;;;5023277;28;20076;-73
2022/02/27 11:37:14;;;;;;;8.40;5.28;;;5.20;99.90;;;;;;5030183;28;20021;-73
2022/02/27 11:42:57;;;;;;;6.90;4.95;;;5.30;99.90;;;;;;5018578;28;20053;-74
2022/02/27 11:45:32;;;;;;;10.52;5.72;;;5.20;99.90;;;;;;4991318;28;20124;-74
2022/02/27 11:47:58;;;;;;;7.88;5.22;;;5.20;99.90;;;;;;5021680;28;20357;-74
2022/02/27 11:50:26;;;;;;;9.95;5.55;;;5.30;99.90;;;;;;5027329;28;20017;-74
2022/02/27 11:52:52;;;;;;;7.18;5.35;;;5.40;99.90;;;;;;5019886;28;20033;-74
2022/02/27 11:55:42;;;;;;;6.78;5.03;;;5.40;99.90;;;;;;5010544;28;20121;-74
2022/02/27 11:58:27;;;;;;;7.25;4.93;;;5.40;99.90;;;;;;5029546;28;20498;-74
2022/02/27 12:00:53;;;;;;;8.60;5.07;;;5.50;99.90;;;;;;5019620;28;20068;-74
2022/02/27 12:03:31;;;;;;;7.63;4.63;;;5.60;99.90;;;;;;5028686;28;20025;-75
2022/02/27 12:05:57;;;;;;;6.32;4.82;;;6.00;99.90;;;;;;5030639;28;20065;-74
2022/02/27 12:08:45;;;;;;;5.70;4.07;;;6.60;99.90;;;;;;5004557;28;20031;-74
2022/02/27 12:11:27;;;;;;;7.00;4.63;;;7.10;99.90;;;;;;5013187;28;20125;-74
2022/02/27 12:13:54;;;;;;;7.65;4.80;;;7.40;99.90;;;;;;5019621;28;20057;-74
2022/02/27 12:16:37;;;;;;;6.80;4.53;;;8.40;99.90;;;;;;5010198;28;20075;-75
2022/02/27 12:19:03;;;;;;;7.65;5.10;;;8.60;99.90;;;;;;5026531;28;20503;-75
2022/02/27 12:21:40;;;;;;;6.72;4.78;;;8.60;99.90;;;;;;5022411;28;20476;-75
2022/02/27 12:24:15;;;;;;;5.68;4.22;;;9.10;99.90;;;;;;5030112;28;20510;-75
2022/02/27 12:26:43;;;;;;;6.15;4.15;;;9.10;99.90;;;;;;5022432;28;20476;-76
2022/02/27 12:29:36;;;;;;;5.35;4.40;;;9.10;99.90;;;;;;5010778;28;20118;-75
2022/02/27 12:32:12;;;;;;;4.82;4.18;;;8.90;99.90;;;;;;4997020;28;20033;-76
2022/02/27 12:34:40;;;;;;;7.65;4.30;;;9.00;99.90;;;;;;5006383;28;20080;-76
2022/02/27 12:37:07;;;;;;;5.07;3.92;;;8.10;99.90;;;;;;5011080;28;20108;-75
2022/02/27 12:39:36;;;;;;;4.80;3.97;;;7.70;99.90;;;;;;5017269;28;20019;-75
2022/02/27 12:42:02;;;;;;;6.90;4.35;;;7.60;99.90;;;;;;5011111;28;20029;-75
2022/02/27 12:44:32;;;;;;;6.60;4.32;;;7.50;99.90;;;;;;5013613;28;20050;-75
2022/02/27 12:47:00;;;;;;;6.63;4.20;;;7.40;99.90;;;;;;5018887;28;20026;-75